createdAt,value
2023-03-22T00:01:37.753Z,17.27
2023-03-22T00:06:41.562Z,23.77
2023-03-22T00:11:44.776Z,14.05
2023-03-22T00:16:49.994Z,14.07
2023-03-22T00:21:53.244Z,16.05
2023-03-22T00:26:56.622Z,15.25
2023-03-22T00:32:01.348Z,11.68
2023-03-22T00:37:05.066Z,15.90
2023-03-22T00:42:08.833Z,13.07
2023-03-22T00:47:14.629Z,12.88
2023-03-22T00:52:18.418Z,11.82
2023-03-22T00:57:21.814Z,12.93
2023-03-22T01:02:29.751Z,9.13
2023-03-22T01:07:33.552Z,12.77
2023-03-22T01:12:40.616Z,9.32
2023-03-22T01:17:49.106Z,11.63
2023-03-22T01:22:52.546Z,9.77
2023-03-22T01:27:56.041Z,10.57
2023-03-22T01:33:00.754Z,10.20
2023-03-22T01:38:04.617Z,15.83
2023-03-22T01:48:27.742Z,9.10
2023-03-22T01:53:34.788Z,10.05
2023-03-22T01:58:43.347Z,10.02
2023-03-22T02:03:54.255Z,6.57
2023-03-22T02:08:59.427Z,15.13
2023-03-22T02:14:23.491Z,12.20
2023-03-22T02:20:45.268Z,12.45
2023-03-22T02:26:24.669Z,12.80
2023-03-22T02:31:53.963Z,10.48
2023-03-22T02:37:16.994Z,11.63
2023-03-22T02:42:42.094Z,12.85
2023-03-22T02:47:55.720Z,8.33
2023-03-22T02:53:06.334Z,6.57
2023-03-22T02:58:18.101Z,8.98
2023-03-22T03:03:25.871Z,6.45
2023-03-22T03:08:30.796Z,10.70
2023-03-22T03:13:38.303Z,5.35
2023-03-22T03:18:49.386Z,6.40
2023-03-22T03:23:59.377Z,6.75
2023-03-22T03:29:11.824Z,9.55
2023-03-22T03:34:21.048Z,8.75
2023-03-22T03:39:27.784Z,7.63
2023-03-22T03:44:34.257Z,6.32
2023-03-22T03:49:37.652Z,5.65
2023-03-22T03:54:43.131Z,8.75
2023-03-22T03:59:52.997Z,4.60
2023-03-22T04:05:17.560Z,7.90
2023-03-22T04:10:21.781Z,12.18
2023-03-22T04:15:26.976Z,8.23
2023-03-22T04:20:34.000Z,8.90
2023-03-22T04:25:38.040Z,13.07
2023-03-22T04:30:52.053Z,7.03
2023-03-22T04:36:17.712Z,7.22
2023-03-22T04:41:40.242Z,9.35
2023-03-22T04:46:45.781Z,7.38
2023-03-22T04:51:49.759Z,7.13
2023-03-22T04:57:06.508Z,9.50
2023-03-22T05:02:17.728Z,7.50
2023-03-22T05:07:23.704Z,8.70
2023-03-22T05:12:31.333Z,8.00
2023-03-22T05:17:42.257Z,8.23
2023-03-22T05:22:51.038Z,11.60
2023-03-22T05:28:01.725Z,8.35
2023-03-22T05:33:22.189Z,14.27
2023-03-22T05:38:29.825Z,10.52
2023-03-22T05:43:36.418Z,8.88
2023-03-22T05:48:42.584Z,8.80
2023-03-22T05:53:47.597Z,12.43
2023-03-22T05:58:55.200Z,13.35
2023-03-22T06:04:01.398Z,15.18
2023-03-22T06:09:17.395Z,10.60
2023-03-22T06:14:26.340Z,14.85
2023-03-22T06:19:44.070Z,16.02
2023-03-22T06:24:50.388Z,13.60
2023-03-22T06:30:02.301Z,14.05
2023-03-22T06:35:11.039Z,13.25
2023-03-22T06:40:15.027Z,12.43
2023-03-22T06:45:19.259Z,16.75
2023-03-22T06:50:24.632Z,14.15
2023-03-22T06:55:44.663Z,11.95
2023-03-22T07:00:54.006Z,10.30
2023-03-22T07:06:04.282Z,11.27
2023-03-22T07:11:09.760Z,14.55
2023-03-22T07:16:14.511Z,12.37
2023-03-22T07:21:27.709Z,9.93
2023-03-22T07:26:36.129Z,17.25
2023-03-22T07:31:40.633Z,11.85
2023-03-22T07:36:49.431Z,18.27
2023-03-22T07:41:53.036Z,10.25
2023-03-22T07:46:56.907Z,11.45
2023-03-22T07:52:08.973Z,14.35
2023-03-22T07:57:12.629Z,10.10
2023-03-22T08:02:22.275Z,11.95
2023-03-22T08:07:32.011Z,13.07
2023-03-22T08:12:36.531Z,12.00
2023-03-22T08:18:00.794Z,13.23
2023-03-22T08:23:15.798Z,10.70
2023-03-22T08:28:37.706Z,10.70
2023-03-22T08:33:42.180Z,13.43
2023-03-22T08:38:47.275Z,12.50
2023-03-22T08:43:53.746Z,14.65
2023-03-22T08:49:00.402Z,13.13
2023-03-22T08:54:12.523Z,13.23
2023-03-22T08:59:34.217Z,8.63
2023-03-22T09:05:13.895Z,15.70
2023-03-22T09:10:20.961Z,12.65
2023-03-22T09:15:26.410Z,11.93
2023-03-22T09:20:46.561Z,7.97
2023-03-22T09:25:55.465Z,8.43
2023-03-22T09:31:02.568Z,9.90
2023-03-22T09:36:07.157Z,9.02
2023-03-22T09:41:17.101Z,8.30
2023-03-22T09:46:28.299Z,7.90
2023-03-22T09:51:39.743Z,10.68
2023-03-22T09:56:49.156Z,8.32
2023-03-22T10:01:57.881Z,6.00
2023-03-22T10:07:08.582Z,6.22
2023-03-22T10:12:20.926Z,7.03
2023-03-22T10:17:27.512Z,5.65
2023-03-22T10:22:34.819Z,7.03
2023-03-22T10:27:39.557Z,6.90
2023-03-22T10:32:57.162Z,4.80
2023-03-22T10:38:05.704Z,8.75
2023-03-22T10:43:21.566Z,7.13
2023-03-22T10:48:30.015Z,8.32
2023-03-22T10:53:40.027Z,6.25
2023-03-22T10:58:44.644Z,6.95
2023-03-22T11:03:51.973Z,9.00
2023-03-22T11:08:58.797Z,6.13
2023-03-22T11:14:08.149Z,6.88
2023-03-22T11:19:18.302Z,5.13
2023-03-22T11:24:22.774Z,7.18
2023-03-22T11:29:27.506Z,6.07
2023-03-22T11:34:32.915Z,5.00
2023-03-22T11:39:36.274Z,3.65
2023-03-22T11:44:40.968Z,2.90
2023-03-22T11:49:48.831Z,6.57
2023-03-22T11:54:54.177Z,6.50
2023-03-22T12:00:07.138Z,3.58
2023-03-22T12:05:20.094Z,6.50
2023-03-22T12:10:29.192Z,6.22
2023-03-22T12:15:38.204Z,8.10
2023-03-22T12:20:46.667Z,2.50
2023-03-22T12:25:52.819Z,3.92
2023-03-22T12:30:58.557Z,3.75
2023-03-22T12:36:05.744Z,3.30
2023-03-22T12:41:13.226Z,3.65
2023-03-22T12:46:20.938Z,2.67
2023-03-22T12:51:24.300Z,1.38
2023-03-22T12:56:31.882Z,1.90
2023-03-22T13:01:41.032Z,3.13
2023-03-22T13:06:57.560Z,3.40
2023-03-22T13:12:30.152Z,3.45
2023-03-22T13:17:47.251Z,2.92
2023-03-22T13:23:13.074Z,2.08
2023-03-22T13:28:27.312Z,2.85
2023-03-22T13:33:34.710Z,4.03
2023-03-22T13:38:42.646Z,2.03
2023-03-22T13:43:50.230Z,3.83
2023-03-22T13:49:13.838Z,6.40
2023-03-22T13:54:24.629Z,2.20
2023-03-22T13:59:33.757Z,3.28
2023-03-22T14:04:44.245Z,4.28
2023-03-22T14:09:51.809Z,6.63
2023-03-22T14:14:59.093Z,3.83
2023-03-22T14:20:08.360Z,3.50
